createdAt,value
2023-02-27T00:01:46.015Z,-1.50
2023-02-27T00:04:14.160Z,-1.40
2023-02-27T00:06:42.044Z,-1.50
2023-02-27T00:09:10.237Z,-1.50
2023-02-27T00:11:38.554Z,-1.50
2023-02-27T00:14:07.855Z,-1.50
2023-02-27T00:16:36.131Z,-1.50
2023-02-27T00:19:04.836Z,-1.50
2023-02-27T00:21:35.832Z,-1.50
2023-02-27T00:24:05.610Z,-1.50
2023-02-27T00:26:33.585Z,-1.50
2023-02-27T00:29:01.504Z,-1.60
2023-02-27T00:31:30.959Z,-1.60
2023-02-27T00:33:58.966Z,-1.60
2023-02-27T00:36:27.000Z,-1.60
2023-02-27T00:38:54.975Z,-1.50
2023-02-27T00:41:23.187Z,-1.60
2023-02-27T00:43:55.788Z,-1.50
2023-02-27T00:46:23.850Z,-1.50
2023-02-27T00:48:53.718Z,-1.50
2023-02-27T00:51:22.221Z,-1.50
2023-02-27T00:53:50.161Z,-1.40
2023-02-27T00:56:18.289Z,-1.30
2023-02-27T00:58:46.187Z,-1.30
2023-02-27T01:01:15.327Z,-1.40
2023-02-27T01:03:43.475Z,-1.50
2023-02-27T01:06:13.320Z,-1.50
2023-02-27T01:08:41.260Z,-1.60
2023-02-27T01:11:09.145Z,-1.60
2023-02-27T01:13:37.034Z,-1.60
2023-02-27T01:16:05.648Z,-1.70
2023-02-27T01:18:33.557Z,-1.70
2023-02-27T01:21:01.451Z,-1.70
2023-02-27T01:23:30.940Z,-1.70
2023-02-27T01:25:58.800Z,-1.60
2023-02-27T01:28:28.455Z,-1.60
2023-02-27T01:30:56.408Z,-1.60
2023-02-27T01:33:24.625Z,-1.70
2023-02-27T01:35:52.544Z,-1.70
2023-02-27T01:38:20.806Z,-1.70
2023-02-27T01:40:50.077Z,-1.70
2023-02-27T01:43:22.876Z,-1.70
2023-02-27T01:45:54.189Z,-1.70
2023-02-27T01:48:29.899Z,-1.80
2023-02-27T01:51:04.612Z,-1.80
2023-02-27T01:53:38.224Z,-1.80
2023-02-27T01:56:13.477Z,-1.80
2023-02-27T01:58:42.930Z,-1.90
2023-02-27T02:01:11.090Z,-1.90
2023-02-27T02:03:49.079Z,-1.80
2023-02-27T02:06:17.732Z,-1.80
2023-02-27T02:08:50.360Z,-1.90
2023-02-27T02:11:25.007Z,-1.90
2023-02-27T02:14:02.631Z,-1.90
2023-02-27T02:17:06.652Z,-1.90
2023-02-27T02:20:29.389Z,-1.90
2023-02-27T02:24:00.048Z,-1.90
2023-02-27T02:26:44.959Z,-2.00
2023-02-27T02:30:10.158Z,-2.00
2023-02-27T02:34:02.789Z,-2.10
2023-02-27T02:37:41.127Z,-2.10
2023-02-27T02:40:36.442Z,-2.10
2023-02-27T02:43:15.679Z,-2.10
2023-02-27T02:45:54.658Z,-2.10
2023-02-27T02:48:29.837Z,-2.10
2023-02-27T02:51:06.992Z,-2.10
2023-02-27T02:53:43.913Z,-2.10
2023-02-27T02:56:22.735Z,-2.10
2023-02-27T02:58:59.701Z,-2.10
2023-02-27T03:01:37.037Z,-2.10
2023-02-27T03:04:12.025Z,-2.00
2023-02-27T03:06:49.502Z,-1.90
2023-02-27T03:09:23.593Z,-1.70
2023-02-27T03:11:57.607Z,-1.60
2023-02-27T03:14:35.020Z,-1.40
2023-02-27T03:17:10.704Z,-1.40
2023-02-27T03:19:45.702Z,-1.20
2023-02-27T03:22:19.516Z,-1.00
2023-02-27T03:24:53.847Z,-0.90
2023-02-27T03:27:30.410Z,-0.80
2023-02-27T03:30:08.610Z,-0.60
2023-02-27T03:32:45.853Z,-0.50
2023-02-27T03:35:15.281Z,-0.30
2023-02-27T03:37:57.108Z,-0.30
2023-02-27T03:40:34.532Z,-0.20
2023-02-27T03:43:18.225Z,-0.20
2023-02-27T03:46:00.637Z,-0.10
2023-02-27T03:48:29.265Z,-0.10
2023-02-27T03:50:58.175Z,-0.10
2023-02-27T03:53:34.437Z,0.00
2023-02-27T03:56:06.616Z,0.00
2023-02-27T03:58:37.291Z,0.10
2023-02-27T04:01:05.703Z,0.10
2023-02-27T04:03:44.176Z,0.10
2023-02-27T04:06:33.226Z,0.10
2023-02-27T04:09:10.335Z,0.20
2023-02-27T04:12:12.793Z,0.10
2023-02-27T04:14:58.050Z,0.20
2023-02-27T04:17:30.593Z,0.10
2023-02-27T04:20:37.516Z,0.20
2023-02-27T04:23:11.462Z,0.20
2023-02-27T04:25:55.672Z,0.20
2023-02-27T04:28:30.091Z,0.20
2023-02-27T04:31:10.496Z,0.20
2023-02-27T04:33:50.240Z,0.30
2023-02-27T04:36:29.360Z,0.20
2023-02-27T04:39:08.088Z,0.10
2023-02-27T04:41:46.229Z,0.00
2023-02-27T04:44:17.390Z,0.00
2023-02-27T04:46:50.138Z,0.00
2023-02-27T04:49:25.900Z,0.00
2023-02-27T04:52:01.679Z,-0.10
2023-02-27T04:54:38.395Z,-0.20
2023-02-27T04:57:13.632Z,-0.30
2023-02-27T04:59:46.850Z,-0.30
2023-02-27T05:02:24.941Z,-0.40
2023-02-27T05:04:59.648Z,-0.50
2023-02-27T05:07:34.435Z,-0.50
2023-02-27T05:10:06.984Z,-0.60
2023-02-27T05:12:41.596Z,-0.60
2023-02-27T05:15:16.518Z,-0.60
2023-02-27T05:17:53.256Z,-0.70
2023-02-27T05:20:27.830Z,-0.80
2023-02-27T05:23:06.408Z,-0.80
2023-02-27T05:25:45.697Z,-0.90
2023-02-27T05:28:24.772Z,-1.00
2023-02-27T05:31:01.674Z,-1.10
2023-02-27T05:33:36.842Z,-1.10
2023-02-27T05:36:12.097Z,-1.10
2023-02-27T05:38:45.597Z,-1.10
2023-02-27T05:41:19.083Z,-1.10
2023-02-27T05:43:52.927Z,-1.10
2023-02-27T05:46:26.785Z,-1.10
2023-02-27T05:49:03.461Z,-1.20
2023-02-27T05:51:36.581Z,-1.20
2023-02-27T05:54:15.241Z,-1.30
2023-02-27T05:56:48.316Z,-1.30
2023-02-27T05:59:24.968Z,-1.30
2023-02-27T06:01:53.055Z,-1.30
2023-02-27T06:04:22.588Z,-1.40
2023-02-27T06:06:53.578Z,-1.40
2023-02-27T06:09:22.106Z,-1.40
2023-02-27T06:11:50.029Z,-1.40
2023-02-27T06:14:18.173Z,-1.40
2023-02-27T06:16:46.107Z,-1.40
2023-02-27T06:19:14.276Z,-0.90
2023-02-27T06:21:43.814Z,-1.40
2023-02-27T06:24:11.700Z,-1.40
2023-02-27T06:26:39.602Z,-1.30
2023-02-27T06:29:07.662Z,-1.20
2023-02-27T06:31:35.551Z,-1.00
2023-02-27T06:34:03.394Z,-0.90
2023-02-27T06:36:31.292Z,-0.80
2023-02-27T06:39:00.596Z,-0.70
2023-02-27T06:41:31.405Z,-0.50
2023-02-27T06:43:59.646Z,-0.50
2023-02-27T06:46:28.045Z,-0.30
2023-02-27T06:48:56.161Z,-0.10
2023-02-27T06:51:24.058Z,0.20
2023-02-27T06:53:52.287Z,0.30
2023-02-27T06:56:21.631Z,0.40
2023-02-27T06:58:49.613Z,0.50
2023-02-27T07:01:18.037Z,0.40
2023-02-27T07:03:45.982Z,0.40
2023-02-27T07:06:13.941Z,0.40
2023-02-27T07:09:01.572Z,0.50
2023-02-27T07:11:31.056Z,0.80
2023-02-27T07:13:58.916Z,1.40
2023-02-27T07:16:27.304Z,1.70
2023-02-27T07:18:55.485Z,2.20
2023-02-27T07:21:23.671Z,2.60
2023-02-27T07:23:51.541Z,3.00
2023-02-27T07:26:19.558Z,3.30
2023-02-27T07:28:48.719Z,3.60
2023-02-27T07:31:17.829Z,3.90
2023-02-27T07:33:46.087Z,4.20
2023-02-27T07:36:14.285Z,4.40
2023-02-27T07:38:42.153Z,4.70
2023-02-27T07:41:21.247Z,5.00
2023-02-27T07:44:01.778Z,5.40
2023-02-27T07:46:30.027Z,5.70
2023-02-27T07:48:58.085Z,5.80
2023-02-27T07:51:25.962Z,5.80
2023-02-27T07:53:53.877Z,5.70
2023-02-27T07:56:21.812Z,5.50
2023-02-27T07:58:49.678Z,5.30
2023-02-27T08:01:18.874Z,5.00
2023-02-27T08:03:46.749Z,4.70
2023-02-27T08:06:14.722Z,4.50
2023-02-27T08:08:42.977Z,4.40
2023-02-27T08:11:11.128Z,4.30
2023-02-27T08:16:29.072Z,4.20
2023-02-27T08:18:57.387Z,4.20
2023-02-27T08:21:25.502Z,4.30
2023-02-27T08:23:54.425Z,4.30
2023-02-27T08:26:22.684Z,4.30
2023-02-27T08:28:50.602Z,4.20
2023-02-27T08:31:18.738Z,4.30
2023-02-27T08:33:49.613Z,4.30
2023-02-27T08:36:21.037Z,4.30
2023-02-27T08:38:48.950Z,4.40
2023-02-27T08:41:16.887Z,4.60
2023-02-27T08:43:45.069Z,4.50
2023-02-27T08:46:13.002Z,4.50
2023-02-27T08:48:42.618Z,4.40
2023-02-27T08:51:11.883Z,4.30
2023-02-27T08:53:39.759Z,4.20
2023-02-27T08:56:08.375Z,4.00
2023-02-27T08:58:36.494Z,3.60
2023-02-27T09:01:04.994Z,3.20
2023-02-27T09:03:33.039Z,3.20
2023-02-27T09:06:01.818Z,3.20
2023-02-27T09:08:31.277Z,3.20
2023-02-27T09:10:59.626Z,3.20
2023-02-27T09:13:28.510Z,3.30
2023-02-27T09:15:56.913Z,3.40
2023-02-27T09:18:24.946Z,3.50
2023-02-27T09:20:53.494Z,3.60
2023-02-27T09:23:21.505Z,3.60
2023-02-27T09:25:50.682Z,3.60
2023-02-27T09:28:18.657Z,3.70
2023-02-27T09:30:46.724Z,3.80
2023-02-27T09:33:15.167Z,3.90
2023-02-27T09:35:43.232Z,3.90
2023-02-27T09:38:12.136Z,4.00
2023-02-27T09:40:44.393Z,4.10
2023-02-27T09:43:22.705Z,4.20
2023-02-27T09:45:56.514Z,4.20
2023-02-27T09:48:33.201Z,4.10
2023-02-27T09:51:02.389Z,4.20
2023-02-27T09:53:35.608Z,4.20
2023-02-27T09:56:10.724Z,4.20
2023-02-27T09:58:51.861Z,4.20
2023-02-27T10:01:27.774Z,4.10
2023-02-27T10:04:28.816Z,4.30
2023-02-27T10:07:07.138Z,4.50
2023-02-27T10:09:52.795Z,4.50
2023-02-27T10:12:42.743Z,4.40
2023-02-27T10:15:22.048Z,4.30
2023-02-27T10:17:56.496Z,4.30
2023-02-27T10:20:29.850Z,4.40
2023-02-27T10:23:03.121Z,4.60
2023-02-27T10:25:36.090Z,4.70
2023-02-27T10:28:18.429Z,4.80
2023-02-27T10:30:52.529Z,4.90
2023-02-27T10:33:28.591Z,5.10
2023-02-27T10:35:57.760Z,5.30
2023-02-27T10:38:34.310Z,5.40
2023-02-27T10:41:04.386Z,5.50
2023-02-27T10:43:32.508Z,5.70
2023-02-27T10:46:12.632Z,5.80
2023-02-27T10:48:41.296Z,5.80
2023-02-27T10:51:26.981Z,5.10
2023-02-27T10:54:25.286Z,5.00
2023-02-27T10:56:57.405Z,4.90
2023-02-27T10:59:29.287Z,5.10
2023-02-27T11:02:02.147Z,5.20
2023-02-27T11:04:34.927Z,5.40
2023-02-27T11:07:06.504Z,5.40
2023-02-27T11:09:37.169Z,5.20
2023-02-27T11:12:21.691Z,5.10
2023-02-27T11:14:53.559Z,5.20
2023-02-27T11:17:28.531Z,5.40
2023-02-27T11:19:57.929Z,5.40
2023-02-27T11:22:29.128Z,5.40
2023-02-27T11:25:21.100Z,5.60
2023-02-27T11:27:49.381Z,5.70
2023-02-27T11:30:27.894Z,5.70
2023-02-27T11:33:02.777Z,5.50
2023-02-27T11:35:35.219Z,5.50
2023-02-27T11:38:06.547Z,5.60
2023-02-27T11:40:40.163Z,5.60
2023-02-27T11:43:19.895Z,5.30
2023-02-27T11:46:10.350Z,5.10
2023-02-27T11:48:51.283Z,4.90
2023-02-27T11:51:32.677Z,5.20
2023-02-27T11:54:19.079Z,5.40
2023-02-27T11:57:04.180Z,5.70
2023-02-27T11:59:45.324Z,6.00
2023-02-27T12:02:26.001Z,6.10
2023-02-27T12:05:00.726Z,6.10
2023-02-27T12:07:37.124Z,6.10
2023-02-27T12:10:15.397Z,5.60
2023-02-27T12:12:51.493Z,5.40
2023-02-27T12:15:30.228Z,5.00
2023-02-27T12:18:15.723Z,4.60
2023-02-27T12:20:55.658Z,4.40
2023-02-27T12:23:36.752Z,4.30
2023-02-27T12:26:13.393Z,4.40
2023-02-27T12:28:55.238Z,4.30
2023-02-27T12:31:52.956Z,4.10
2023-02-27T12:34:28.394Z,4.20
2023-02-27T12:37:03.300Z,4.10
2023-02-27T12:39:32.391Z,3.90
2023-02-27T12:42:36.864Z,3.70
2023-02-27T12:45:30.258Z,3.80
2023-02-27T12:48:20.673Z,3.90
2023-02-27T12:51:00.521Z,4.00
2023-02-27T12:54:08.820Z,3.90
2023-02-27T12:56:57.241Z,3.70
2023-02-27T12:59:52.337Z,3.50
2023-02-27T13:02:59.522Z,3.50
2023-02-27T13:05:42.889Z,3.60
2023-02-27T13:08:28.465Z,3.90
2023-02-27T13:11:08.637Z,4.20
2023-02-27T13:13:43.617Z,4.40
2023-02-27T13:16:20.222Z,4.50
2023-02-27T13:18:56.141Z,4.50
2023-02-27T13:21:35.013Z,4.60
2023-02-27T13:24:24.151Z,4.60
2023-02-27T13:27:01.525Z,4.70
2023-02-27T13:29:39.322Z,4.60
2023-02-27T13:32:36.488Z,4.50
2023-02-27T13:35:27.992Z,4.60
2023-02-27T13:38:01.615Z,4.70
2023-02-27T13:40:38.877Z,4.70
2023-02-27T13:43:46.395Z,4.70
2023-02-27T13:46:27.097Z,4.70
2023-02-27T13:48:55.498Z,4.70
2023-02-27T13:51:48.041Z,4.80
2023-02-27T13:54:24.986Z,4.80
2023-02-27T13:57:18.161Z,4.80
2023-02-27T13:59:56.251Z,4.70
2023-02-27T14:02:57.886Z,4.60
2023-02-27T14:05:34.810Z,4.60
2023-02-27T14:08:14.992Z,4.40
2023-02-27T14:10:57.927Z,4.30
2023-02-27T14:14:29.867Z,4.20
2023-02-27T14:17:03.531Z,4.30
2023-02-27T14:19:59.399Z,4.40
2023-02-27T14:22:43.931Z,4.50
2023-02-27T14:25:33.855Z,4.70
2023-02-27T14:28:04.037Z,4.60
2023-02-27T14:30:39.285Z,4.40
2023-02-27T14:33:37.449Z,4.40
2023-02-27T14:36:15.605Z,4.20
2023-02-27T14:38:44.073Z,4.20
2023-02-27T14:41:30.850Z,4.30
2023-02-27T14:44:00.218Z,4.40
2023-02-27T14:46:31.804Z,4.50
2023-02-27T14:49:04.631Z,4.50
2023-02-27T14:51:35.382Z,4.50
2023-02-27T14:54:15.597Z,4.40
2023-02-27T14:56:56.341Z,4.30
2023-02-27T14:59:26.687Z,4.40
2023-02-27T15:01:58.221Z,4.40
2023-02-27T15:04:30.926Z,4.40
2023-02-27T15:07:01.489Z,4.50
2023-02-27T15:09:37.688Z,4.60
2023-02-27T15:12:06.119Z,4.60
2023-02-27T15:14:38.510Z,4.30
2023-02-27T15:17:18.252Z,4.10
2023-02-27T15:19:53.654Z,3.90
2023-02-27T15:22:38.123Z,3.70
2023-02-27T15:25:27.102Z,3.60
2023-02-27T15:27:57.605Z,3.40
2023-02-27T15:30:25.746Z,3.30
2023-02-27T15:32:55.872Z,3.20
2023-02-27T15:35:31.112Z,3.00
2023-02-27T15:38:01.004Z,2.90
2023-02-27T15:40:32.052Z,2.80
2023-02-27T15:43:01.478Z,2.80
2023-02-27T15:45:34.308Z,2.70
2023-02-27T15:48:03.178Z,2.70
2023-02-27T15:50:38.444Z,2.70
2023-02-27T15:53:14.821Z,2.70
2023-02-27T15:55:47.731Z,2.60
2023-02-27T15:58:25.239Z,2.60
2023-02-27T16:01:01.602Z,2.60
2023-02-27T16:03:35.089Z,2.50
2023-02-27T16:06:11.844Z,2.60
2023-02-27T16:08:48.795Z,2.50
2023-02-27T16:11:21.305Z,2.60
2023-02-27T16:13:50.223Z,2.50
2023-02-27T16:16:31.565Z,2.40
2023-02-27T16:19:03.406Z,2.50
2023-02-27T16:21:33.359Z,2.50
2023-02-27T16:24:25.211Z,2.40
2023-02-27T16:26:54.432Z,2.40
2023-02-27T16:29:28.536Z,2.30
2023-02-27T16:31:58.769Z,2.20
2023-02-27T16:34:44.553Z,2.30
2023-02-27T16:37:23.153Z,2.20
2023-02-27T16:39:53.528Z,2.20
2023-02-27T16:42:21.879Z,2.30
2023-02-27T16:44:49.860Z,2.30
2023-02-27T16:47:17.756Z,2.30
2023-02-27T16:49:47.270Z,2.30
2023-02-27T16:52:15.151Z,2.30
2023-02-27T16:54:44.688Z,2.40
2023-02-27T16:57:13.911Z,2.40
2023-02-27T16:59:42.356Z,2.40
2023-02-27T17:02:14.532Z,2.50
2023-02-27T17:04:44.458Z,2.50
2023-02-27T17:07:16.584Z,2.50
2023-02-27T17:09:46.842Z,2.50
2023-02-27T17:12:15.072Z,2.40
2023-02-27T17:14:42.979Z,2.30
2023-02-27T17:17:11.520Z,2.30
2023-02-27T17:19:40.253Z,2.30
2023-02-27T17:22:08.152Z,2.20
2023-02-27T17:24:36.192Z,2.10
2023-02-27T17:27:06.147Z,2.10
2023-02-27T17:29:34.558Z,2.00
2023-02-27T17:32:02.463Z,2.00
2023-02-27T17:34:30.399Z,2.00
2023-02-27T17:36:58.236Z,2.00
2023-02-27T17:39:26.110Z,1.90
2023-02-27T17:41:54.369Z,2.00
2023-02-27T17:44:23.902Z,1.90
2023-02-27T17:46:52.035Z,1.90
2023-02-27T17:49:19.932Z,1.90
2023-02-27T17:51:48.392Z,1.90
2023-02-27T17:54:16.489Z,2.00
2023-02-27T17:56:44.451Z,2.00
2023-02-27T17:59:12.389Z,2.00
2023-02-27T18:01:41.662Z,2.10
2023-02-27T18:04:11.292Z,2.00
2023-02-27T18:06:39.474Z,2.00
2023-02-27T18:09:07.684Z,1.90
2023-02-27T18:11:37.311Z,2.00
2023-02-27T18:14:05.623Z,1.90
2023-02-27T18:16:34.107Z,1.90
2023-02-27T18:19:06.188Z,1.80
2023-02-27T18:21:35.465Z,1.80
2023-02-27T18:24:03.479Z,1.70
2023-02-27T18:26:34.514Z,1.70
2023-02-27T18:29:07.072Z,1.70
2023-02-27T18:31:38.398Z,1.70
2023-02-27T18:34:08.777Z,1.70
2023-02-27T18:36:38.064Z,1.70
2023-02-27T18:39:06.857Z,1.70
2023-02-27T18:41:35.772Z,1.70
2023-02-27T18:44:04.252Z,1.70
2023-02-27T18:46:32.733Z,1.70
2023-02-27T18:49:00.942Z,1.70
2023-02-27T18:51:30.695Z,1.70
2023-02-27T18:53:59.964Z,1.70
2023-02-27T18:56:30.357Z,1.70
2023-02-27T18:59:01.879Z,1.70
2023-02-27T19:01:32.967Z,1.70
2023-02-27T19:04:04.750Z,1.70
2023-02-27T19:06:36.741Z,1.70
2023-02-27T19:09:06.365Z,1.70
2023-02-27T19:11:35.537Z,1.60
2023-02-27T19:14:07.117Z,1.80
2023-02-27T19:16:36.506Z,1.80
2023-02-27T19:19:07.523Z,1.90
2023-02-27T19:21:37.553Z,1.90
2023-02-27T19:24:06.869Z,3.00
2023-02-27T19:26:35.311Z,1.80
2023-02-27T19:29:03.395Z,1.80
2023-02-27T19:31:32.238Z,1.80
2023-02-27T19:34:00.484Z,1.80
2023-02-27T19:36:31.181Z,1.70
2023-02-27T19:39:00.538Z,1.70
2023-02-27T19:41:31.331Z,1.80
2023-02-27T19:44:00.965Z,1.70
2023-02-27T19:46:32.343Z,1.80
2023-02-27T19:49:04.260Z,1.80
2023-02-27T19:51:33.186Z,1.80
2023-02-27T19:54:02.694Z,1.80
2023-02-27T19:56:31.213Z,1.80
2023-02-27T19:59:01.722Z,1.90
2023-02-27T20:01:32.897Z,1.90
2023-02-27T20:04:01.876Z,1.90
2023-02-27T20:06:32.994Z,1.90
2023-02-27T20:09:02.252Z,1.90
2023-02-27T20:11:31.586Z,1.90
2023-02-27T20:13:59.921Z,1.90
2023-02-27T20:16:30.305Z,1.90
2023-02-27T20:18:58.520Z,1.90
2023-02-27T20:21:28.570Z,1.90
2023-02-27T20:23:57.301Z,1.80
2023-02-27T20:26:30.795Z,1.80
2023-02-27T20:29:02.741Z,1.80
2023-02-27T20:31:34.702Z,1.80
2023-02-27T20:34:05.915Z,1.80
2023-02-27T20:36:34.911Z,1.80
2023-02-27T20:39:03.238Z,1.70
2023-02-27T20:41:34.574Z,1.70
2023-02-27T20:44:02.660Z,1.70
2023-02-27T20:46:31.736Z,1.70
2023-02-27T20:49:02.293Z,1.70
2023-02-27T20:51:35.105Z,1.70
2023-02-27T20:54:06.715Z,1.70
2023-02-27T20:56:40.531Z,1.70
2023-02-27T20:59:13.144Z,1.70
2023-02-27T21:01:42.456Z,1.70
2023-02-27T21:04:10.548Z,1.70
2023-02-27T21:06:38.456Z,1.70
2023-02-27T21:09:07.661Z,1.70
2023-02-27T21:11:38.918Z,1.70
2023-02-27T21:14:10.240Z,1.70
2023-02-27T21:16:39.541Z,1.60
2023-02-27T21:19:07.659Z,1.50
2023-02-27T21:21:38.050Z,1.50
2023-02-27T21:24:07.066Z,1.40
2023-02-27T21:26:39.318Z,1.30
2023-02-27T21:29:10.904Z,1.10
2023-02-27T21:31:41.310Z,1.10
2023-02-27T21:34:13.554Z,1.10
2023-02-27T21:36:44.820Z,1.10
2023-02-27T21:39:16.529Z,1.10
2023-02-27T21:41:47.285Z,1.10
2023-02-27T21:44:18.027Z,1.00
2023-02-27T21:46:46.630Z,1.00
2023-02-27T21:49:18.392Z,1.00
2023-02-27T21:51:47.411Z,1.10
2023-02-27T21:54:18.942Z,1.10
2023-02-27T21:56:50.428Z,1.20
2023-02-27T21:59:20.063Z,1.20
2023-02-27T22:01:48.920Z,1.20
2023-02-27T22:04:20.415Z,1.20
2023-02-27T22:06:49.250Z,1.20
2023-02-27T22:09:17.774Z,1.20
2023-02-27T22:11:45.756Z,1.30
2023-02-27T22:14:15.425Z,1.30
2023-02-27T22:16:43.713Z,1.40
2023-02-27T22:19:14.102Z,1.20
2023-02-27T22:21:42.112Z,1.10
2023-02-27T22:24:10.164Z,1.10
2023-02-27T22:26:39.210Z,1.20
2023-02-27T22:29:07.873Z,1.20
2023-02-27T22:31:39.364Z,1.20
2023-02-27T22:34:11.983Z,1.30
2023-02-27T22:36:41.572Z,1.30
2023-02-27T22:39:09.772Z,1.30
2023-02-27T22:41:40.876Z,1.30
2023-02-27T22:44:13.281Z,1.20
2023-02-27T22:46:47.002Z,1.20
2023-02-27T22:49:18.148Z,1.20
2023-02-27T22:51:50.846Z,1.20
2023-02-27T22:54:21.928Z,1.20
2023-02-27T22:56:51.968Z,1.20
2023-02-27T22:59:19.943Z,1.20
2023-02-27T23:01:50.372Z,1.20
2023-02-27T23:04:19.226Z,1.20
2023-02-27T23:06:47.171Z,1.20
2023-02-27T23:09:19.196Z,1.30
2023-02-27T23:11:47.655Z,1.30
2023-02-27T23:14:16.485Z,1.30
2023-02-27T23:16:45.747Z,1.20
2023-02-27T23:19:18.820Z,1.20
2023-02-27T23:21:46.778Z,1.30
2023-02-27T23:24:17.180Z,1.20
2023-02-27T23:26:48.981Z,1.20
2023-02-27T23:29:17.212Z,1.20
2023-02-27T23:31:45.816Z,1.20
2023-02-27T23:34:15.148Z,1.20
2023-02-27T23:36:43.494Z,1.20
2023-02-27T23:39:11.337Z,1.20
2023-02-27T23:41:39.226Z,1.30
2023-02-27T23:44:07.281Z,1.30
2023-02-27T23:46:35.227Z,1.30
2023-02-27T23:49:03.329Z,1.30
2023-02-27T23:51:33.215Z,1.30
2023-02-27T23:54:01.396Z,1.30
2023-02-27T23:56:31.329Z,1.20
2023-02-27T23:59:02.373Z,1.20
